createdAt,value
2023-02-15T00:02:03.081Z,4.10
2023-02-15T00:04:47.210Z,4.10
2023-02-15T00:07:15.857Z,4.00
2023-02-15T00:09:42.780Z,4.10
2023-02-15T00:12:10.865Z,4.00
2023-02-15T00:14:37.745Z,4.10
2023-02-15T00:17:05.011Z,4.00
2023-02-15T00:19:31.841Z,4.00
2023-02-15T00:21:58.743Z,4.00
2023-02-15T00:24:25.675Z,4.10
2023-02-15T00:26:52.615Z,4.10
2023-02-15T00:29:20.812Z,4.20
2023-02-15T00:31:48.012Z,4.30
2023-02-15T00:34:22.008Z,4.40
2023-02-15T00:36:49.460Z,4.40
2023-02-15T00:39:17.652Z,4.20
2023-02-15T00:41:45.192Z,4.10
2023-02-15T00:44:12.824Z,4.20
2023-02-15T00:46:39.831Z,4.20
2023-02-15T00:49:06.904Z,4.10
2023-02-15T00:51:37.322Z,4.10
2023-02-15T00:54:04.264Z,4.20
2023-02-15T00:56:31.103Z,4.10
2023-02-15T00:58:57.934Z,4.10
2023-02-15T01:01:25.024Z,4.10
2023-02-15T01:03:52.418Z,4.20
2023-02-15T01:06:19.777Z,4.10
2023-02-15T01:08:47.702Z,4.10
2023-02-15T01:11:23.028Z,4.20
2023-02-15T01:13:51.969Z,4.30
2023-02-15T01:16:18.964Z,4.20
2023-02-15T01:18:46.100Z,4.30
2023-02-15T01:21:21.831Z,4.20
2023-02-15T01:23:51.110Z,4.20
2023-02-15T01:26:18.015Z,4.20
2023-02-15T01:28:45.304Z,4.30
2023-02-15T01:31:15.155Z,4.20
2023-02-15T01:33:42.669Z,4.20
2023-02-15T01:36:09.508Z,4.20
2023-02-15T01:38:37.162Z,4.20
2023-02-15T01:41:22.933Z,4.30
2023-02-15T01:44:02.132Z,4.30
2023-02-15T01:46:35.846Z,4.40
2023-02-15T01:49:25.368Z,4.30
2023-02-15T01:51:55.752Z,4.00
2023-02-15T01:54:25.654Z,4.00
2023-02-15T01:56:55.652Z,4.20
2023-02-15T01:59:24.316Z,4.40
2023-02-15T02:01:55.507Z,4.40
2023-02-15T02:04:39.806Z,4.40
2023-02-15T02:07:07.896Z,4.40
2023-02-15T02:09:35.395Z,4.50
2023-02-15T02:12:02.900Z,4.60
2023-02-15T02:14:30.119Z,4.60
2023-02-15T02:17:22.561Z,4.60
2023-02-15T02:20:08.439Z,4.60
2023-02-15T02:22:38.034Z,4.60
2023-02-15T02:25:16.572Z,4.50
2023-02-15T02:28:18.363Z,4.60
2023-02-15T02:31:16.966Z,4.50
2023-02-15T02:33:49.380Z,4.60
2023-02-15T02:36:41.336Z,4.60
2023-02-15T02:39:38.701Z,4.60
2023-02-15T02:42:17.242Z,4.50
2023-02-15T02:44:59.536Z,4.50
2023-02-15T02:47:37.333Z,4.60
2023-02-15T02:50:09.015Z,4.50
2023-02-15T02:52:37.669Z,4.40
2023-02-15T02:55:24.827Z,4.60
2023-02-15T02:58:22.417Z,4.50
2023-02-15T03:00:58.930Z,4.40
2023-02-15T03:03:38.809Z,4.40
2023-02-15T03:06:12.220Z,4.30
2023-02-15T03:08:44.429Z,4.30
2023-02-15T03:11:12.730Z,4.40
2023-02-15T03:13:40.579Z,4.50
2023-02-15T03:16:27.977Z,4.40
2023-02-15T03:19:02.648Z,4.50
2023-02-15T03:22:04.657Z,4.40
2023-02-15T03:24:37.505Z,4.40
2023-02-15T03:27:09.968Z,4.30
2023-02-15T03:29:38.187Z,4.30
2023-02-15T03:32:10.267Z,4.40
2023-02-15T03:34:37.270Z,4.20
2023-02-15T03:37:42.794Z,4.00
2023-02-15T03:40:50.234Z,4.10
2023-02-15T03:43:37.771Z,4.10
2023-02-15T03:46:29.023Z,4.10
2023-02-15T03:49:04.616Z,4.00
2023-02-15T03:51:37.199Z,4.10
2023-02-15T03:54:35.104Z,4.30
2023-02-15T03:57:21.292Z,4.30
2023-02-15T04:00:06.647Z,4.40
2023-02-15T04:02:45.700Z,4.40
2023-02-15T04:05:12.606Z,4.50
2023-02-15T04:07:39.441Z,4.50
2023-02-15T04:10:25.493Z,4.50
2023-02-15T04:12:54.699Z,4.40
2023-02-15T04:15:40.110Z,4.40
2023-02-15T04:18:06.909Z,4.50
2023-02-15T04:20:52.334Z,4.40
2023-02-15T04:23:37.713Z,4.30
2023-02-15T04:26:05.692Z,4.30
2023-02-15T04:28:32.686Z,4.20
2023-02-15T04:30:59.526Z,4.20
2023-02-15T04:33:26.305Z,4.30
2023-02-15T04:35:53.109Z,4.30
2023-02-15T04:38:19.931Z,4.30
2023-02-15T04:40:51.824Z,4.20
2023-02-15T04:43:22.128Z,4.20
2023-02-15T04:45:51.409Z,4.10
2023-02-15T04:48:19.049Z,4.20
2023-02-15T04:50:45.916Z,4.20
2023-02-15T04:53:13.487Z,4.10
2023-02-15T04:55:40.288Z,4.10
2023-02-15T04:58:07.180Z,4.20
2023-02-15T05:00:34.418Z,4.30
2023-02-15T05:03:01.220Z,4.20
2023-02-15T05:05:28.040Z,4.20
2023-02-15T05:07:55.123Z,4.20
2023-02-15T05:10:22.036Z,4.10
2023-02-15T05:12:48.940Z,4.00
2023-02-15T05:15:15.945Z,3.90
2023-02-15T05:17:42.789Z,3.90
2023-02-15T05:20:10.026Z,3.90
2023-02-15T05:22:36.826Z,3.90
2023-02-15T05:25:22.162Z,3.90
2023-02-15T05:28:07.588Z,3.90
2023-02-15T05:30:34.728Z,3.80
2023-02-15T05:33:01.645Z,3.90
2023-02-15T05:35:28.587Z,4.00
2023-02-15T05:37:55.408Z,4.00
2023-02-15T05:40:22.224Z,4.00
2023-02-15T05:42:49.024Z,3.90
2023-02-15T05:45:16.621Z,3.80
2023-02-15T05:47:43.630Z,3.90
2023-02-15T05:50:12.383Z,4.00
2023-02-15T05:52:39.486Z,3.90
2023-02-15T05:55:07.076Z,3.90
2023-02-15T05:57:33.886Z,3.70
2023-02-15T06:00:00.691Z,3.60
2023-02-15T06:02:27.637Z,3.70
2023-02-15T06:04:54.452Z,3.60
2023-02-15T06:07:21.279Z,3.70
2023-02-15T06:09:48.050Z,3.80
2023-02-15T06:12:14.915Z,3.80
2023-02-15T06:14:41.809Z,3.70
2023-02-15T06:17:09.711Z,3.70
2023-02-15T06:19:36.564Z,3.80
2023-02-15T06:22:03.403Z,3.60
2023-02-15T06:24:30.347Z,3.60
2023-02-15T06:26:57.252Z,3.50
2023-02-15T06:29:24.020Z,3.60
2023-02-15T06:31:51.083Z,3.70
2023-02-15T06:34:18.137Z,3.60
2023-02-15T06:36:44.947Z,3.70
2023-02-15T06:39:11.920Z,3.60
2023-02-15T06:41:38.685Z,3.60
2023-02-15T06:44:05.791Z,3.50
2023-02-15T06:46:32.667Z,3.30
2023-02-15T06:48:59.527Z,3.40
2023-02-15T06:51:26.434Z,3.40
2023-02-15T06:53:53.301Z,3.50
2023-02-15T06:56:20.091Z,3.60
2023-02-15T06:58:47.071Z,3.60
2023-02-15T07:01:14.062Z,3.60
2023-02-15T07:03:40.970Z,3.60
2023-02-15T07:06:15.830Z,3.50
2023-02-15T07:08:42.704Z,3.60
2023-02-15T07:11:28.602Z,3.70
2023-02-15T07:13:55.429Z,3.60
2023-02-15T07:16:22.311Z,3.50
2023-02-15T07:18:49.401Z,3.50
2023-02-15T07:21:16.177Z,3.50
2023-02-15T07:23:43.194Z,3.40
2023-02-15T07:26:10.078Z,3.40
2023-02-15T07:28:37.381Z,3.40
2023-02-15T07:31:07.167Z,3.40
2023-02-15T07:33:37.100Z,3.40
2023-02-15T07:36:05.541Z,3.40
2023-02-15T07:38:36.379Z,3.40
2023-02-15T07:41:08.825Z,3.30
2023-02-15T07:43:38.561Z,3.30
2023-02-15T07:46:08.632Z,3.20
2023-02-15T07:48:36.440Z,3.20
2023-02-15T07:51:06.544Z,3.10
2023-02-15T07:53:33.790Z,3.10
2023-02-15T07:56:05.938Z,3.10
2023-02-15T07:58:52.075Z,3.10
2023-02-15T08:01:21.842Z,3.20
2023-02-15T08:03:49.521Z,3.10
2023-02-15T08:06:16.460Z,3.30
2023-02-15T08:08:43.786Z,3.30
2023-02-15T08:11:32.037Z,3.30
2023-02-15T08:14:07.937Z,3.20
2023-02-15T08:16:44.796Z,3.10
2023-02-15T08:19:17.417Z,3.10
2023-02-15T08:21:49.962Z,2.90
2023-02-15T08:24:19.386Z,3.00
2023-02-15T08:26:47.840Z,3.10
2023-02-15T08:29:16.883Z,3.20
2023-02-15T08:31:44.365Z,3.20
2023-02-15T08:34:14.101Z,3.30
2023-02-15T08:36:41.209Z,3.30
2023-02-15T08:39:08.066Z,3.30
2023-02-15T08:41:37.011Z,3.30
2023-02-15T08:44:07.035Z,3.30
2023-02-15T08:46:37.406Z,3.30
2023-02-15T08:49:04.767Z,3.20
2023-02-15T08:51:35.626Z,3.30
2023-02-15T08:54:05.476Z,3.20
2023-02-15T08:56:37.452Z,3.10
2023-02-15T08:59:05.679Z,3.00
2023-02-15T09:01:34.356Z,3.00
2023-02-15T09:04:11.925Z,2.90
2023-02-15T09:06:40.618Z,2.70
2023-02-15T09:09:08.603Z,2.80
2023-02-15T09:11:45.068Z,2.90
2023-02-15T09:14:15.727Z,3.00
2023-02-15T09:16:47.323Z,3.10
2023-02-15T09:19:14.455Z,3.20
2023-02-15T09:21:42.202Z,3.30
2023-02-15T09:24:12.203Z,3.40
2023-02-15T09:26:42.113Z,3.40
2023-02-15T09:29:09.929Z,3.40
2023-02-15T09:31:52.310Z,3.40
2023-02-15T09:34:22.699Z,3.40
2023-02-15T09:36:50.332Z,3.40
2023-02-15T09:39:24.670Z,3.50
2023-02-15T09:42:19.462Z,3.60
2023-02-15T09:44:58.928Z,3.40
2023-02-15T09:47:31.892Z,3.40
2023-02-15T09:50:01.728Z,3.40
2023-02-15T09:52:44.260Z,3.60
2023-02-15T09:55:34.467Z,3.60
2023-02-15T09:58:16.821Z,3.70
2023-02-15T10:01:01.614Z,3.80
2023-02-15T10:03:42.321Z,3.90
2023-02-15T10:06:47.341Z,3.90
2023-02-15T10:09:20.128Z,3.90
2023-02-15T10:12:01.716Z,3.80
2023-02-15T10:15:01.488Z,3.80
2023-02-15T10:17:46.606Z,3.70
2023-02-15T10:20:29.668Z,3.80
2023-02-15T10:23:34.490Z,3.90
2023-02-15T10:26:23.714Z,3.70
2023-02-15T10:28:58.125Z,3.70
2023-02-15T10:31:36.217Z,3.60
2023-02-15T10:34:05.710Z,3.60
2023-02-15T10:36:51.074Z,3.50
2023-02-15T10:39:23.443Z,3.50
2023-02-15T10:42:27.604Z,3.60
2023-02-15T10:45:16.183Z,3.60
2023-02-15T10:48:20.678Z,3.60
2023-02-15T10:51:13.092Z,3.50
2023-02-15T10:53:54.742Z,3.60
2023-02-15T10:56:56.574Z,3.70
2023-02-15T10:59:34.721Z,3.70
2023-02-15T11:02:12.939Z,3.70
2023-02-15T11:05:14.908Z,3.60
2023-02-15T11:07:44.813Z,3.40
2023-02-15T11:10:44.374Z,3.60
2023-02-15T11:13:23.668Z,3.60
2023-02-15T11:16:06.249Z,3.80
2023-02-15T11:18:42.600Z,3.80
2023-02-15T11:21:33.608Z,3.80
2023-02-15T11:24:02.457Z,3.80
2023-02-15T11:26:31.063Z,3.80
2023-02-15T11:29:09.625Z,3.80
2023-02-15T11:31:56.296Z,3.70
2023-02-15T11:34:26.167Z,3.70
2023-02-15T11:36:55.950Z,3.60
2023-02-15T11:39:24.414Z,3.50
2023-02-15T11:41:56.044Z,3.40
2023-02-15T11:44:35.962Z,3.40
2023-02-15T11:47:03.659Z,3.50
2023-02-15T11:49:36.001Z,3.60
2023-02-15T11:52:06.940Z,3.70
2023-02-15T11:54:38.422Z,3.70
2023-02-15T11:57:32.930Z,3.70
2023-02-15T12:00:08.603Z,3.60
2023-02-15T12:02:39.195Z,3.60
2023-02-15T12:05:20.233Z,3.60
2023-02-15T12:08:10.649Z,3.60
2023-02-15T12:11:18.559Z,3.70
2023-02-15T12:14:12.994Z,3.70
2023-02-15T12:16:49.665Z,3.70
2023-02-15T12:19:38.657Z,3.80
2023-02-15T12:22:18.486Z,3.60
2023-02-15T12:24:48.279Z,3.70
2023-02-15T12:27:15.019Z,3.80
2023-02-15T12:29:45.649Z,3.70
2023-02-15T12:32:35.462Z,3.80
2023-02-15T12:35:19.415Z,3.70
2023-02-15T12:38:16.787Z,3.70
2023-02-15T12:40:59.103Z,3.60
2023-02-15T12:43:36.395Z,3.50
2023-02-15T12:46:26.331Z,3.50
2023-02-15T12:49:11.268Z,3.50
2023-02-15T12:52:00.443Z,3.40
2023-02-15T12:54:31.823Z,3.60
2023-02-15T12:56:59.595Z,3.60
2023-02-15T12:59:26.961Z,3.60
2023-02-15T13:01:57.086Z,3.70
2023-02-15T13:04:30.348Z,3.60
2023-02-15T13:07:01.799Z,3.70
2023-02-15T13:09:32.211Z,3.60
2023-02-15T13:12:17.535Z,3.50
2023-02-15T13:14:47.490Z,3.50
2023-02-15T13:17:18.440Z,3.60
2023-02-15T13:19:55.350Z,3.70
2023-02-15T13:22:43.012Z,3.80
2023-02-15T13:25:35.726Z,3.70
2023-02-15T13:28:06.611Z,3.60
2023-02-15T13:30:37.809Z,3.60
2023-02-15T13:33:35.055Z,3.50
2023-02-15T13:36:09.553Z,3.60
2023-02-15T13:38:51.620Z,3.70
2023-02-15T13:41:27.996Z,3.80
2023-02-15T13:44:23.273Z,3.70
2023-02-15T13:47:11.088Z,3.60
2023-02-15T13:49:51.409Z,3.60
2023-02-15T13:52:22.671Z,3.50
2023-02-15T13:55:43.873Z,3.50
2023-02-15T13:58:48.049Z,3.50
2023-02-15T14:01:38.358Z,3.60
2023-02-15T14:04:18.840Z,3.60
2023-02-15T14:07:17.159Z,3.80
2023-02-15T14:10:00.000Z,3.70
2023-02-15T14:12:46.202Z,3.40
2023-02-15T14:15:39.474Z,3.40
2023-02-15T14:18:36.440Z,3.50
2023-02-15T14:21:03.861Z,3.40
2023-02-15T14:23:39.685Z,3.40
2023-02-15T14:26:33.557Z,3.40
2023-02-15T14:29:26.021Z,3.30
2023-02-15T14:32:00.347Z,3.30
2023-02-15T14:34:30.647Z,3.30
2023-02-15T14:36:58.890Z,3.20
2023-02-15T14:40:20.776Z,3.20
2023-02-15T14:42:57.250Z,3.20
2023-02-15T14:45:34.192Z,3.20
2023-02-15T14:48:09.400Z,3.20
2023-02-15T14:50:46.640Z,3.10
2023-02-15T14:53:17.068Z,3.20
2023-02-15T14:55:43.964Z,3.20
2023-02-15T14:58:14.837Z,3.40
2023-02-15T15:00:43.155Z,3.30
2023-02-15T15:03:27.193Z,3.30
2023-02-15T15:06:05.819Z,3.30
2023-02-15T15:08:40.152Z,3.20
2023-02-15T15:11:42.087Z,3.20
2023-02-15T15:14:15.561Z,3.30
2023-02-15T15:16:50.858Z,3.30
2023-02-15T15:19:52.297Z,3.30
2023-02-15T15:22:21.773Z,3.40
2023-02-15T15:24:51.945Z,3.40
2023-02-15T15:27:37.577Z,3.40
2023-02-15T15:30:24.888Z,3.30
2023-02-15T15:32:55.454Z,3.20
2023-02-15T15:35:36.016Z,3.30
2023-02-15T15:38:39.770Z,3.20
2023-02-15T15:41:15.357Z,3.30
2023-02-15T15:44:04.930Z,3.30
2023-02-15T15:47:02.916Z,3.30
2023-02-15T15:49:35.806Z,3.30
2023-02-15T15:52:10.167Z,3.20
2023-02-15T15:54:40.901Z,3.20
2023-02-15T15:57:29.105Z,3.20
2023-02-15T15:59:57.198Z,3.30
2023-02-15T16:02:24.688Z,3.30
2023-02-15T16:04:51.690Z,3.30
2023-02-15T16:07:18.613Z,3.30
2023-02-15T16:10:24.967Z,3.30
2023-02-15T16:12:56.052Z,3.30
2023-02-15T16:15:26.221Z,3.20
2023-02-15T16:17:58.844Z,3.30
2023-02-15T16:20:37.313Z,3.30
2023-02-15T16:23:39.229Z,3.10
2023-02-15T16:26:32.053Z,3.20
2023-02-15T16:29:00.267Z,3.10
2023-02-15T16:31:27.326Z,3.00
2023-02-15T16:33:56.126Z,3.00
2023-02-15T16:36:28.352Z,2.90
2023-02-15T16:38:58.306Z,2.90
2023-02-15T16:41:28.561Z,3.00
2023-02-15T16:43:59.447Z,3.00
2023-02-15T16:46:32.982Z,2.90
2023-02-15T16:49:15.449Z,2.90
2023-02-15T16:51:45.738Z,2.80
2023-02-15T16:54:23.581Z,2.90
2023-02-15T16:56:50.632Z,2.90
2023-02-15T16:59:43.289Z,2.90
2023-02-15T17:02:49.341Z,2.90
2023-02-15T17:05:12.826Z,2.90
2023-02-15T17:07:41.626Z,2.90
2023-02-15T17:11:06.019Z,3.00
2023-02-15T17:13:39.295Z,3.00
2023-02-15T17:16:23.638Z,3.00
2023-02-15T17:18:52.513Z,3.00
2023-02-15T17:21:34.394Z,3.00
2023-02-15T17:24:05.162Z,3.10
2023-02-15T17:26:35.753Z,3.00
2023-02-15T17:29:15.576Z,2.90
2023-02-15T17:31:50.692Z,2.90
2023-02-15T17:35:11.709Z,2.80
2023-02-15T17:37:38.510Z,2.70
2023-02-15T17:40:25.295Z,2.70
2023-02-15T17:42:53.593Z,2.70
2023-02-15T17:45:21.900Z,2.80
2023-02-15T17:47:50.059Z,2.70
2023-02-15T17:50:23.197Z,2.70
2023-02-15T17:52:51.546Z,2.70
2023-02-15T17:55:39.226Z,2.80
2023-02-15T17:58:08.461Z,2.80
2023-02-15T18:00:57.286Z,2.80
2023-02-15T18:03:44.337Z,2.70
2023-02-15T18:06:32.953Z,2.70
2023-02-15T18:09:18.243Z,2.70
2023-02-15T18:11:49.087Z,2.60
2023-02-15T18:14:16.091Z,2.60
2023-02-15T18:16:45.756Z,2.70
2023-02-15T18:19:17.718Z,2.70
2023-02-15T18:21:45.903Z,2.70
2023-02-15T18:24:19.554Z,2.70
2023-02-15T18:26:47.061Z,2.70
2023-02-15T18:29:16.550Z,2.80
2023-02-15T18:31:45.992Z,2.80
2023-02-15T18:34:21.322Z,2.70
2023-02-15T18:36:48.723Z,2.70
2023-02-15T18:39:45.005Z,2.80
2023-02-15T18:42:24.263Z,2.90
2023-02-15T18:44:55.642Z,2.90
2023-02-15T18:47:22.988Z,3.00
2023-02-15T18:49:49.830Z,3.00
2023-02-15T18:52:22.601Z,2.80
2023-02-15T18:54:58.063Z,2.80
2023-02-15T18:57:25.090Z,2.80
2023-02-15T18:59:51.923Z,2.80
2023-02-15T19:02:19.992Z,2.80
2023-02-15T19:04:49.484Z,2.80
2023-02-15T19:07:29.116Z,2.80
2023-02-15T19:09:58.949Z,2.70
2023-02-15T19:12:26.665Z,2.70
2023-02-15T19:14:56.703Z,2.80
2023-02-15T19:17:24.788Z,2.70
2023-02-15T19:19:53.040Z,2.70
2023-02-15T19:22:31.301Z,2.70
2023-02-15T19:25:05.716Z,2.70
2023-02-15T19:27:36.996Z,2.80
2023-02-15T19:30:14.154Z,2.70
2023-02-15T19:32:40.942Z,2.60
2023-02-15T19:35:14.705Z,2.60
2023-02-15T19:37:44.054Z,2.50
2023-02-15T19:40:24.119Z,2.50
2023-02-15T19:42:51.556Z,2.40
2023-02-15T19:45:22.017Z,2.40
2023-02-15T19:47:49.005Z,2.40
2023-02-15T19:50:22.449Z,2.40
2023-02-15T19:52:49.771Z,2.40
2023-02-15T19:55:29.772Z,2.40
2023-02-15T19:57:58.120Z,2.40
2023-02-15T20:00:30.540Z,2.30
2023-02-15T20:02:59.320Z,2.30
2023-02-15T20:05:28.924Z,2.30
2023-02-15T20:07:56.720Z,2.30
2023-02-15T20:10:32.623Z,2.30
2023-02-15T20:12:59.926Z,2.30
2023-02-15T20:15:34.512Z,2.30
2023-02-15T20:18:04.050Z,2.30
2023-02-15T20:20:55.244Z,2.30
2023-02-15T20:23:30.948Z,2.20
2023-02-15T20:25:59.848Z,2.20
2023-02-15T20:28:31.879Z,2.20
2023-02-15T20:30:59.433Z,2.20
2023-02-15T20:33:26.622Z,2.20
2023-02-15T20:35:53.563Z,2.20
2023-02-15T20:38:29.980Z,2.20
2023-02-15T20:41:18.190Z,2.20
2023-02-15T20:43:45.079Z,2.20
2023-02-15T20:46:12.125Z,2.10
2023-02-15T20:48:39.150Z,2.10
2023-02-15T20:51:06.625Z,2.10
2023-02-15T20:53:33.492Z,2.10
2023-02-15T20:56:00.440Z,2.10
2023-02-15T20:58:30.283Z,2.00
2023-02-15T21:00:58.730Z,2.00
2023-02-15T21:03:30.877Z,2.00
2023-02-15T21:05:58.683Z,2.00
2023-02-15T21:08:25.852Z,2.00
2023-02-15T21:10:53.907Z,1.90
2023-02-15T21:13:26.489Z,1.90
2023-02-15T21:15:55.664Z,1.90
2023-02-15T21:18:25.389Z,1.90
2023-02-15T21:20:55.101Z,1.80
2023-02-15T21:23:29.604Z,1.80
2023-02-15T21:25:57.345Z,1.80
2023-02-15T21:28:27.143Z,1.70
2023-02-15T21:30:55.389Z,1.70
2023-02-15T21:33:22.334Z,1.70
2023-02-15T21:35:52.879Z,1.70
2023-02-15T21:38:25.337Z,1.60
2023-02-15T21:40:52.326Z,1.60
2023-02-15T21:43:43.984Z,1.60
2023-02-15T21:46:35.251Z,1.60
2023-02-15T21:49:03.067Z,1.50
2023-02-15T21:51:49.767Z,1.50
2023-02-15T21:54:20.971Z,1.50
2023-02-15T21:56:50.976Z,1.50
2023-02-15T21:59:18.872Z,1.50
2023-02-15T22:01:49.185Z,1.50
2023-02-15T22:04:25.439Z,1.50
2023-02-15T22:06:52.848Z,1.40
2023-02-15T22:09:22.789Z,1.40
2023-02-15T22:11:51.050Z,1.40
2023-02-15T22:14:41.977Z,1.40
2023-02-15T22:17:19.066Z,1.30
2023-02-15T22:19:47.383Z,1.40
2023-02-15T22:22:14.296Z,1.40
2023-02-15T22:24:41.822Z,1.40
2023-02-15T22:27:19.999Z,1.40
2023-02-15T22:29:47.021Z,1.40
2023-02-15T22:32:22.473Z,1.40
2023-02-15T22:34:50.110Z,1.30
2023-02-15T22:37:17.195Z,1.40
2023-02-15T22:39:44.256Z,1.40
2023-02-15T22:42:37.500Z,1.50
2023-02-15T22:45:06.694Z,1.50
2023-02-15T22:47:37.673Z,1.30
2023-02-15T22:50:14.806Z,1.30
2023-02-15T22:52:41.602Z,1.30
2023-02-15T22:55:09.528Z,1.30
2023-02-15T22:57:36.488Z,1.30
2023-02-15T23:00:06.286Z,1.30
2023-02-15T23:02:33.097Z,1.30
2023-02-15T23:04:59.962Z,1.30
2023-02-15T23:07:27.879Z,1.30
2023-02-15T23:09:54.700Z,1.20
2023-02-15T23:12:49.339Z,1.10
2023-02-15T23:15:16.168Z,1.10
2023-02-15T23:17:42.934Z,1.10
2023-02-15T23:20:15.046Z,1.10
2023-02-15T23:22:43.496Z,1.10
2023-02-15T23:25:11.560Z,1.10
2023-02-15T23:27:56.831Z,1.00
2023-02-15T23:30:24.498Z,1.00
2023-02-15T23:32:54.562Z,1.00
2023-02-15T23:35:21.509Z,1.10
2023-02-15T23:37:48.370Z,1.10
2023-02-15T23:40:35.155Z,1.10
2023-02-15T23:43:02.555Z,1.10
2023-02-15T23:45:33.567Z,1.10
2023-02-15T23:48:18.993Z,1.10
2023-02-15T23:50:45.858Z,1.10
2023-02-15T23:53:12.620Z,1.00
2023-02-15T23:55:43.169Z,1.00
2023-02-15T23:58:16.308Z,1.00
